Startpagina
METAR-TAF:

METAR-TAF

Vliegvelden :

Las Vegas, Nevada, Verenigde Staten

McCarran International Airport

breedte: 36-04-44N, lengte: 115-09-19W, hoogte: 663 m

Actueel weer

Dit bericht is 45 minuten geleden gemaakt, om 06:56 UTC
Wind 4 kt uit het zuiden
Temperatuur 16°C
Vochtigheid 42%
Druk 1017 hPa
Zicht: 16.1 km
Weinig wolken op 25000 ft

METAR: KLAS 240656Z 17004KT 10SM FEW250 16/03 A3002 RMK AO2 SLP151 T01610028 $

Tijdstip: 23:41 (07:41 UTC)

Verwachting

Dit bericht is 2 uur en het 21 minuten geleden gemaakt, om 05:20 UTC
Verwachting geldig van 24 om 06 UTC tot 25 om 12 UTC
Wind 5 kt uit variabele richting
Zicht: 10 km
Verspreide wolken op 25000 ft

TAF: KLAS 240520Z 2406/2512 VRB05KT P6SM SCT250

Waarnemingen en weersverwachtingen van meer dan 4000 vliegvelden (METAR en TAF).

De beschikbare stations zijn de gele en rode punten op de kaart.

Ga met uw muis naar het station om de naam te zien.

Klik dan om waarnemingen en weersverwachtingen te zien.

kaart wijzigen: klik op de groene knoppen met een zwart kruis om in te zoomen, op de groene knop met een streepje om uit te zoomen of op de groene pijlen voor aangrenzende kaarten.


METAR-TAF: